Choose a state:
Most recent flow and stage for Nebraska
(Stations highlighted in red are currently above flood stage)
USGS
station
ID
USGS station name NWS
flood
stage
(ft)
Most recent
stage
(ft)
Most recent
flow
(cfs)
Historical
peaks
(cfs)
Most recent
local
date/time
NWS
station
ID
06453600 Ponca Creek at Verdel, Nebr. 13.5 5.30 64 15,700 2017-04-30 06:15:00 VERN1
06453620 Missouri River blw Ponca Creek nr Verdel, Nebr. 24 21.38

 

  2017-04-30 06:15:00 MRVN1
06454100 Niobrara River at Agate, Nebr.   4.05

 

181 2017-04-30 05:45:00  
06461150 Tyler Falls at Ft Niobrara NWR nr Valentine, Nebr.   11.09 Rat   2017-04-30 06:45:00  
06461500 Niobrara River near Sparks, Nebr. 6 3.13 1,060 10,200 2017-04-30 06:15:00 SPKN1
06461595 East Middle Creek at Norden Road nr Norden, Nebr.   10.64

 

  2017-04-30 06:50:00  
06463500 Long Pine Creek near Riverview, Nebr.   1.72 156 9,650 2017-04-30 06:45:00  
06463670 Willow Creek at Atwood Rd nr Carns, Nebr.   10.74 1.1   2017-04-30 06:45:00  
06463720 Niobrara River at Mariaville, Nebr.   3.16 1,410 6,200 2017-04-30 06:45:00  
06465500 Niobrara River near Verdel, Nebr. 7 2.98 1,380 39,000 2017-04-30 06:15:00 VRDN1
06465700 Verdigre Creek near Verdigre, Nebr.   4.30 177 5,750 2017-04-30 06:45:00 VEDN1
06466000 Niobrara River at Niobrara, Nebr. 38 30.45

 

  2017-04-30 06:15:00 NRBN1
06466010 Missouri River at Niobrara, Nebr. 21 19.37

 

  2017-04-30 06:15:00 MRNN1
06466400 Bazile Creek at Center, Nebr.   1.88 96 4,390 2017-04-30 06:00:00 CBCN1
06466500 Bazile Creek near Niobrara, Nebr. 9 3.69 139 68,600 2017-04-30 06:00:00 NBZN1
06478522 Bow Creek near Wynot, Nebr.   4.77 214 2,220 2017-04-30 06:30:00  
06478523 MISSOURI RIVER NR ST. JAMES, NE   33.78

 

  2017-04-30 06:30:00  
06478526 Missouri River near Maskell, Nebr. 30 21.76

 

  2017-04-30 06:15:00 MKLN1
06486000 Missouri River at Sioux City, IA 30 14.30 35,200 441,000 2017-04-30 06:00:00 SSCN1
06600900 South Omaha Creek at Walthill, Nebr. 20 6.84 28 14,200 2017-04-30 06:00:00 WHLN1
06601000 Omaha Creek at Homer, Nebr. 18 2.69 104 51,000 2017-04-30 06:45:00 HMRN1
06601200 Missouri River at Decatur, NE 35 22.46 36,200 191,000 2017-04-30 06:00:00 DCTN1
06609100 Missouri River at Blair, NE 26.5 17.12

 

  2017-04-30 06:00:00 BLAN1
06610000 Missouri River at Omaha, NE 29 17.17 40,600 396,000 2017-04-30 06:00:00 OMHN1
06610705 Big Papillion Creek near Blair, Nebr. 24.5 11.70

 

2017-04-30 06:15:00 BLBN1
06610710 Big Papillion Creek near Kennard, Nebr. 28.5 8.74

 

2017-04-30 06:59:00 KEBN1
06610720 Big Papillion Creek near Bennington, Nebr. 30 6.08 74 6,820 2017-04-30 06:56:00 BEBN1
06610732 Big Papillion Creek at Fort Street at Omaha, Nebr. 23.5 4.08 115 6,900 2017-04-30 06:20:00 OHAN1
06610740 Big Papillion Creek at Pacific St at Omaha, Nebr. 32 11.33

 

2017-04-30 06:52:00 OMBN1
06610742 Thomas Creek near Bennington, Nebr. 17.5 2.53

 

2017-04-30 07:03:00 IRLN1
06610750 Little Papillion Creek near Irvington, Nebr. 19.5 3.76 50 7,230 2017-04-30 06:50:00 IRVN1
06610760 Cole Creek at Blondo Street at Omaha, Nebr. 21.5 5.75

 

2017-04-30 06:50:00 OMCN1
06610765 Little Papillion Cr at Ak-Sar-Ben at Omaha, Nebr. 29 3.48 146 8,370 2017-04-30 05:40:00 OMLN1
06610770 Big Papillion Creek at Q Street at Omaha, Nebr. 36 10.15 393 14,100 2017-04-30 07:05:00 RABN1
06610773 West Papillion Creek at Elkhorn, Nebr. 9.5 5.00

 

2017-03-28 11:41:00 EKWN1
06610780 West Papillion Cr at Pacific St at Omaha, Nebr. 33.5 10.06

 

2017-04-30 06:53:00 EWDN1
06610785 West Papillion Creek at Millard, Nebr. 29 10.40 166 8,830 2017-04-30 06:45:00 MWBN1
06610786 South Papillion Creek near Gretna, Nebr. 22 5.60

 

2017-04-30 06:41:00 GSBN1
06610788 South Papillion Creek at Chalco, Nebr. 40 16.76 52 9,020 2017-04-30 06:30:00 PSBN1
06610793 West Papillion Creek at Papillion, Nebr. 31.5 11.24 295 14,700 2017-04-30 06:43:00 PWBN1
06610795 Papillion Creek at Fort Crook, Nebr. 33 10.75 352 32,800 2017-04-30 06:15:00 FCKN1
06680500 North Platte River at Scottsbluff, Nebr. 10 8.61

 

27,900 2017-04-30 06:00:00 SBRN1
06762500 Lodgepole Creek at Bushnell, Nebr.   2.63 0.63 16,500 2017-04-30 05:45:00  
06764880 South Platte River at Roscoe, Nebr. 9 3.63 242 20,100 2017-04-30 05:30:00 RSON1
06768000 Platte River near Overton, Nebr. 7.5 2.99 595 37,600 2017-04-30 06:00:00 OVTN1
06768020 Spring Creek near Overton, Nebr.   3.37 14 484 2017-04-30 06:45:00 OVON1
06768025 Platte R,So-Ch,Cottonwood Ranch nr Overton, Nebr.   4.78 207 3,590 2017-04-30 06:00:00  
06768035 Platte R Mid-Ch, Cottonwood Ranch nr Elm Cr, Nebr.   4.93 751 9,260 2017-04-30 06:45:00  
06769000 Buffalo Creek near Overton, Nebr.   2.98 3.4 509 2017-04-30 06:45:00 OVEN1
06769525 Elm Creek near Elm Creek, Nebr.   1.08 0.00 976 2017-04-30 06:45:00 EMCN1
06770200 Platte River near Kearney, Nebr. 7 2.88 1,540 23,700 2017-04-30 06:15:00 KEAN1
06770500 Platte River near Grand Island, Nebr. 6.5 4.05 1,440 30,000 2017-04-30 06:15:00 GRIN1
06772100 Wood River at Grand Island, Nebr.   10.24 2.4 1,470 2017-04-30 06:00:00 GIDN1
06772775 Warm Slough near Central City, Nebr. 10 1.80 0.00 987 2017-04-30 06:45:00 CENN1
06772898 Silver Creek, at Mile 4 near Silver Creek, Nebr. 11 4.20 5.3 3,070 2017-04-30 06:45:00 SILN1
06773500 Prairie Creek near Silver Creek, Nebr. 9 3.61 11 2,210 2017-04-30 06:45:00 SIVN1
06774000 Platte River near Duncan, Nebr. 8 3.53 869 44,100 2017-04-30 06:30:00 DNCN1
06775500 Middle Loup River at Dunning, Nebr.   3.36 486 2,480 2017-04-30 06:45:00  
06775900 Dismal River near Thedford, Nebr.   0.63 241 1,160 2017-04-30 06:45:00  
06781600 South Loup River at Arnold, Nebr.   5.18 52 973 2017-04-30 06:45:00  
06784000 South Loup River at Saint Michael, Nebr. 7.5 3.08 269 50,000 2017-04-30 06:45:00 SMIN1
06785000 Middle Loup River at Saint Paul, Nebr. 8 2.53 1,010 72,000 2017-04-30 06:15:00 SPLN1
06785500 North Loup River at Brewster, Nebr.   3.06 591 4,870 2017-04-30 06:45:00  
06786000 North Loup River at Taylor, Nebr. 7 3.47 701 16,300 2017-04-30 06:45:00 TYLN1
06790500 North Loup River near Saint Paul, Nebr. 7 3.42 1,330 90,000 2017-04-30 06:15:00 SPUN1
06792500 Loup River Power Canal near Genoa, Nebr.   6.66 1,910   2017-04-30 06:45:00 GEAN1
06793000 Loup River near Genoa, Nebr. 10.5 6.32 906 129,000 2017-04-30 06:45:00 GELN1
06794000 Beaver Creek at Genoa, Nebr. 15 4.45 139 21,200 2017-04-30 06:45:00 GEON1
06794650 Clear Creek 1.75 mile W of Polk County line, Nebr.   4.91 46 1,360 2017-04-30 06:45:00 SHEN1
06795500 Shell Creek near Columbus, Nebr. 20 1.43 37 11,200 2017-04-30 06:30:00 CLBN1
06796000 Platte River at North Bend, Nebr. 8 4.06 4,460 112,000 2017-04-30 06:15:00 NBDN1
06796500 Platte River near Leshara, Nebr. 8 4.16 4,010 46,200 2017-04-30 06:00:00 LESN1
06796550 Platte River near Venice, Nebr. 15.5 12.06

 

54,400 2017-04-30 06:15:00 VENN1
06797500 Elkhorn River at Ewing, Nebr. 9 3.22 213 27,300 2017-04-30 06:45:00 EWIN1
06799000 Elkhorn River at Norfolk, Nebr. 12 3.29 766 41,100 2017-04-30 06:15:00 NFKN1
06799080 Willow Creek near Foster, Nebr.   4.86

 

574 2017-04-17 12:45:00  
06799100 North Fork Elkhorn River near Pierce, Nebr. 12 3.90 202 15,200 2017-04-30 06:45:00 PRCN1
06799315 Elkhorn River at Pilger, Nebr. 12 7.65 1,320 51,900 2017-04-30 06:45:00 PLGN1
06799350 Elkhorn River at West Point, Nebr. 12 7.54 1,400 65,400 2017-04-30 06:15:00 WPNN1
06799445 Logan Creek at Wakefield, Nebr. 28 8.25 255 12,500 2017-04-30 06:45:00 LCWN1
06799500 Logan Creek near Uehling, Nebr. 18 4.45 549 25,200 2017-04-30 06:15:00 UEHN1
06800000 Maple Creek near Nickerson, Nebr. 11.5 3.52 154 35,000 2017-04-30 06:45:00 NKRN1
06800500 Elkhorn River at Waterloo, Nebr. 17 4.60 2,250 100,000 2017-04-30 06:15:00 WTRN1
06801000 Platte River near Ashland, Nebr. 20 16.25 9,340 130,000 2017-04-30 06:15:00 ASLN1
06803000 Salt Creek at Roca, Nebr. 19 2.12 32 67,000 2017-04-30 06:15:00 ROCN1
06803080 Salt Creek at Pioneers Boulevard at Lincoln, Nebr. 28 5.92 52 13,900 2017-04-30 06:30:00 LUSN1
06803093 Haines Branch at SW 56th St at Lincoln, Nebr. 17 3.03 8.7 5,060 2017-04-30 06:30:00 LHBN1
06803170 Middle Creek at SW 63rd St at Lincoln, Nebr. 19 2.20 11 6,550 2017-04-30 06:15:00 LMCN1
06803300 Antelope Creek at 27th Street at Lincoln, Nebr. 20 4.30 30 2,570 2017-04-30 06:10:00 LATN1
06803420 North Oak Creek near Touhy, Nebr. 22 4.27 6.3   2017-04-30 06:00:00 THYN1
06803430 North Oak Creek at Valparaiso, Nebr. 20 4.10 8.9   2017-04-30 06:30:00 VLPN1
06803486 Oak Creek at Air Park Road at Lincoln, Nebr. 22 1.07 59 5,990 2017-04-30 06:30:00 LOKN1
06803495 Salt Creek at Fairgrounds at Lincoln, Nebr. 26.5 9.77 332 35,600 2017-04-30 06:30:00 SALN1
06803500 Salt Creek at Lincoln, Nebr. 20.5 3.26 303 34,800 2017-04-30 06:15:00 LCNN1
06803502 Deadmans Run at 38th Street at Lincoln, Nebr. 23 8.89 36 3,510 2017-04-30 06:25:00 DEDN1
06803510 Little Salt Creek near Lincoln, Nebr. 16 1.87 16 9,790 2017-04-30 06:45:00 LICN1
06803513 Salt Creek at 70th Street at Lincoln, Nebr. 34 5.01 393 29,000 2017-04-30 06:15:00 LSCN1
06803520 Stevens Creek near Lincoln, Nebr. 16.5 2.08 86 12,900 2017-04-30 06:30:00 LVNN1
06803530 Rock Creek near Ceresco, Nebr. 23 5.21 43 23,300 2017-04-30 06:45:00 CERN1
06803555 Salt Creek at Greenwood, Nebr. 20 3.13 297 46,800 2017-04-30 06:15:00 GRNN1
06804000 Wahoo Creek at Ithaca, Nebr. 19 5.30 140 77,400 2017-04-30 06:15:00 ITHN1
06804700 Wahoo Creek at Ashland, Nebr. 19 6.36 196 7,000 2017-04-30 06:45:00 ASNN1
06805000 Salt Creek Near Ashland, Nebr. 20 8.40

 

87,000 2017-04-30 06:45:00 ASTN1
06805020 Platte River at South Bend, Nebr.   16.24

 

2016-10-05 13:00:00  
06805500 Platte River at Louisville, Nebr. 9 4.07 9,000 160,000 2017-04-30 06:15:00 LOUN1
06805570 Platte River at La Platte, Nebr.   11.07

 

2015-08-24 23:45:00  
06805600 Missouri River at Plattsmouth, NE 26 17.80

 

  2017-04-30 06:15:00 PTMN1
06806500 Weeping Water Creek at Union, Nebr. 25 5.45 180 65,100 2017-04-30 07:00:00 UION1
06807000 Missouri River at Nebraska City, NE 18 12.11 49,500 414,000 2017-04-30 06:00:00 NEBN1
06810070 Missouri River at Brownville, NE 33 27.87

 

  2017-04-30 06:15:00 BRON1
06811500 Little Nemaha River at Auburn, Nebr. 22 4.67 526 164,000 2017-04-30 06:15:00 ABRN1
06813500 Missouri River at Rulo, NE 17 11.88 55,200 358,000 2017-04-30 06:30:00 RULN1
06814500 North Fork Big Nemaha River at Humboldt, Nebr. 28 4.20 723 59,500 2017-04-30 06:00:00 HBLN1
06815000 Big Nemaha River at Falls City, Nebr. 27 7.03 1,240 71,600 2017-04-30 06:45:00 FLLN1
06821500 Arikaree River at Haigler, Nebr. 12 4.44 0.11 50,000 2017-04-30 05:30:00 HAIN1
06823000 North Fork Republican River at Colorado-Nebraska   1.30 37 2,110 2017-04-30 05:30:00  
06823500 Buffalo Creek near Haigler, Nebr. 11 1.17 3.8 140 2017-04-30 05:45:00 HBCN1
06824000 Rock Creek at Parks, Nebr.   1.08 14 493 2017-04-30 05:45:00  
06824500 Republican River at Benkelman, Nebr. 7 3.73 55 50,000 2017-04-30 05:30:00 BENN1
06827500 South Fork Republican River near Benkelman, Nebr. 9 1.52 11 150,000 2017-04-30 05:30:00 BEKN1
06828500 Republican River at Stratton, Nebr. 11 6.53 77 200,000 2017-04-30 06:45:00 STTN1
06834000 Frenchman Creek at Palisade, Nebr. 7 2.86 29 5,560 2017-04-30 06:45:00 PALN1
06835500 Frenchman Creek at Culbertson, Nebr. 8 3.67 58 15,000 2017-04-30 06:15:00 CULN1
06836500 Driftwood Creek near McCook, Nebr. 17 2.63 3.6 4,740 2017-04-30 06:30:00 MCKN1
06837000 Republican River at McCook, Nebr. 9 4.23 68 245,000 2017-04-30 06:30:00 MKRN1
06838000 Red Willow Creek near Red Willow, Nebr.   4.80 6.9 30,000 2017-04-29 16:30:00  
06843500 Republican River at Cambridge, Nebr. 9 2.60 160 280,000 2017-04-30 06:45:00 CAMN1
06844500 Republican River near Orleans, Nebr. 9 3.16 355 145,000 2017-04-30 06:45:00 ORNN1
06847000 Beaver Creek near Beaver City, Nebr. 11 3.21 3.6 9,510 2017-04-30 06:30:00 BEVN1
06847500 Sappa Creek near Stamford, Nebr. 19 7.13 20 43,400 2017-04-30 06:00:00 STMN1
06849000 Harlan County Lake Near Republican City, Nebr.   1939.17

 

  2017-04-30 06:30:00 REPN1
06852500 Courtland Canal at Nebraska-Kansas Stateline   0.08 Ssn   2017-01-27 23:45:00  
06853020 Republican River at Guide Rock, Nebr. 11 4.51 118 9,860 2017-04-30 06:30:00 GUIN1
06880800 West Fork Big Blue River near Dorchester, Nebr. 15 2.76 53 49,400 2017-04-30 06:00:00 DRGN1
06881000 Big Blue River near Crete, Nebr. 21 8.24 174 27,600 2017-04-30 06:45:00 CRTN1
06881380 Turkey Creek near DeWitt, Nebr. 23.5 10.28 30 29,300 2017-04-30 06:45:00 DEWN1
06881430 Cub Creek near Beatrice, Nebr.   3.70

 

  2016-10-11 15:45:00  
06882000 Big Blue River at Barneston, Nebr. 20 4.14 351 57,700 2017-04-30 06:00:00 BARN1
06883000 Little Blue River near Deweese, Nebr. 10 2.36 54 25,100 2017-04-30 06:15:00 DWEN1
06883530 Little Blue River at County Line nr Deshler, Nebr.   6.35

 

  2017-04-30 06:45:00  
06884000 Little Blue River near Fairbury, Nebr. 18.5 6.74 126 71,200 2017-04-30 06:45:00 FRBN1
06884025 Little Blue River at Hollenberg, KS 19 2.23 210 59,200 2017-04-30 07:00:00 HBGK1
410333095530101 Missouri River near La Platte, Nebr.   15.76

 

  2017-01-25 14:15:00  
411219096010601 Bioretention Cell nr 69th & Q St. Omaha, NE   0.02 0.00   2017-04-30 07:01:00  
411429095583801 ENOA evaporation site, Omaha, Nebr.   0.00 0.00   2017-03-24 08:00:00  
411450095582201 DCHC evaporation site, Omaha Nebr.   0.00 0.00   2017-03-20 15:00:00